Time;durP1;ratioP1;P1;durP2;ratioP2;P2;SDS_P1;SDS_P2;PMS_P1;PMS_P2;Temp;Humidity;BMP_temperature;BMP_pressure;BME280_temperature;BME280_humidity;BME280_pressure;Samples;Min_cycle;Max_cycle;Signal;HPM_P1;HPM_P2
2023/12/24 00:00:14;;;;;;;1.90;1.80;;;8.80;92.20;;;;;;5061351;28;20202;-77
2023/12/24 00:02:41;;;;;;;2.10;2.00;;;8.70;92.10;;;;;;5061158;28;20309;-76
2023/12/24 00:05:09;;;;;;;1.90;1.80;;;8.60;91.40;;;;;;5064623;28;20206;-77
2023/12/24 00:07:36;;;;;;;1.75;1.65;;;8.70;91.00;;;;;;5060316;28;20232;-75
2023/12/24 00:10:04;;;;;;;1.75;1.73;;;8.70;91.10;;;;;;5061569;28;20199;-76
2023/12/24 00:12:31;;;;;;;1.80;1.70;;;8.70;91.00;;;;;;5060718;28;20230;-75
2023/12/24 00:15:00;;;;;;;1.95;1.85;;;8.60;91.30;;;;;;5059749;28;20218;-76
2023/12/24 00:17:27;;;;;;;2.00;1.90;;;8.60;91.80;;;;;;5059229;28;20805;-76
2023/12/24 00:19:54;;;;;;;2.00;1.90;;;8.50;92.30;;;;;;5062930;28;20205;-78
2023/12/24 00:22:22;;;;;;;1.98;1.88;;;8.50;91.80;;;;;;5061019;28;20225;-76
2023/12/24 00:24:49;;;;;;;1.80;1.70;;;8.50;91.40;;;;;;5059738;28;20217;-76
2023/12/24 00:27:16;;;;;;;2.35;2.20;;;8.50;91.10;;;;;;5059305;28;20234;-75
2023/12/24 00:29:43;;;;;;;2.83;2.30;;;8.40;91.50;;;;;;5059049;28;20201;-75
2023/12/24 00:32:11;;;;;;;2.00;1.90;;;8.30;91.90;;;;;;5056406;28;20225;-76
2023/12/24 00:34:38;;;;;;;2.13;2.03;;;8.20;92.30;;;;;;5059872;28;20205;-76
2023/12/24 00:37:05;;;;;;;2.25;2.15;;;8.20;92.50;;;;;;5060994;28;20234;-77
2023/12/24 00:39:34;;;;;;;2.13;2.03;;;8.10;92.70;;;;;;5060174;28;20216;-75
2023/12/24 00:42:01;;;;;;;2.13;2.03;;;8.10;92.60;;;;;;5059242;28;20707;-76
2023/12/24 00:44:28;;;;;;;2.20;2.10;;;8.10;92.60;;;;;;5061379;28;20202;-75
2023/12/24 00:46:55;;;;;;;2.20;2.10;;;8.20;92.00;;;;;;5062424;28;20218;-76
2023/12/24 00:49:25;;;;;;;2.63;2.20;;;8.20;92.00;;;;;;5060967;28;20248;-76
2023/12/24 00:51:53;;;;;;;2.17;2.00;;;8.20;92.10;;;;;;5061344;28;20233;-75
2023/12/24 00:54:20;;;;;;;2.00;1.90;;;8.20;92.30;;;;;;5059979;28;20293;-75
2023/12/24 00:56:49;;;;;;;2.50;2.30;;;8.20;91.50;;;;;;5059756;28;20202;-75
2023/12/24 00:59:16;;;;;;;1.83;1.73;;;8.20;92.20;;;;;;5062088;28;20209;-76
2023/12/24 01:01:43;;;;;;;2.00;1.90;;;8.20;92.80;;;;;;5060781;28;20225;-75
2023/12/24 01:04:10;;;;;;;1.92;1.83;;;8.10;92.70;;;;;;5061462;28;20605;-77
2023/12/24 01:06:37;;;;;;;1.98;1.88;;;8.10;92.80;;;;;;5058086;28;20209;-76
2023/12/24 01:09:05;;;;;;;1.90;1.80;;;8.10;92.80;;;;;;5058927;28;20221;-77
2023/12/24 01:11:32;;;;;;;2.30;2.20;;;8.10;92.30;;;;;;5059069;28;20214;-77
2023/12/24 01:14:00;;;;;;;1.58;1.48;;;8.10;92.10;;;;;;5059983;28;20225;-75
2023/12/24 01:16:27;;;;;;;2.03;1.92;;;8.10;92.10;;;;;;5055642;28;20303;-76
2023/12/24 01:18:54;;;;;;;2.25;2.05;;;8.10;91.50;;;;;;5059551;28;20221;-76
2023/12/24 01:21:22;;;;;;;2.00;1.90;;;8.20;91.80;;;;;;5059543;28;20211;-75
2023/12/24 01:23:49;;;;;;;2.33;2.22;;;8.20;91.60;;;;;;5059275;28;20591;-77
2023/12/24 01:26:16;;;;;;;1.98;1.88;;;8.20;91.60;;;;;;5058389;28;20214;-77
2023/12/24 01:28:43;;;;;;;2.30;2.17;;;8.20;91.90;;;;;;5058773;28;20233;-76
2023/12/24 01:31:11;;;;;;;1.90;1.80;;;8.10;91.80;;;;;;5060156;28;20198;-76
2023/12/24 01:33:38;;;;;;;1.90;1.80;;;8.00;92.00;;;;;;5059373;28;20226;-76
2023/12/24 01:36:06;;;;;;;2.20;2.10;;;8.00;92.20;;;;;;5057727;28;20225;-75
2023/12/24 01:38:33;;;;;;;1.75;1.65;;;7.90;92.20;;;;;;5058553;28;20234;-76
2023/12/24 01:41:00;;;;;;;2.13;2.03;;;7.90;92.40;;;;;;5058595;28;20208;-76
2023/12/24 01:43:27;;;;;;;2.28;2.17;;;7.90;92.40;;;;;;5057545;28;20233;-76
2023/12/24 01:45:55;;;;;;;1.90;1.80;;;7.90;92.30;;;;;;5056307;28;20301;-76
2023/12/24 01:48:25;;;;;;;2.17;2.08;;;7.80;92.60;;;;;;5058473;28;20232;-76
2023/12/24 01:50:52;;;;;;;2.17;2.08;;;7.80;92.60;;;;;;5055748;28;20665;-75
2023/12/24 01:53:19;;;;;;;2.10;2.00;;;7.70;92.70;;;;;;5057842;28;20263;-75
2023/12/24 01:55:48;;;;;;;1.90;1.80;;;7.60;92.20;;;;;;5060062;28;20209;-76
2023/12/24 01:58:16;;;;;;;2.30;2.20;;;7.60;92.20;;;;;;5058749;28;20234;-76
2023/12/24 02:00:43;;;;;;;2.00;1.90;;;7.60;92.20;;;;;;5057007;28;20202;-76
2023/12/24 02:03:10;;;;;;;1.90;1.80;;;7.60;92.60;;;;;;5058160;28;20222;-75
2023/12/24 02:05:40;;;;;;;1.85;1.75;;;7.60;92.70;;;;;;5054918;28;20205;-76
2023/12/24 02:08:09;;;;;;;2.25;2.00;;;7.60;92.70;;;;;;5057803;28;20226;-75
2023/12/24 02:10:36;;;;;;;2.00;1.90;;;7.60;92.80;;;;;;5058280;28;20850;-76
2023/12/24 02:13:03;;;;;;;1.98;1.88;;;7.60;92.60;;;;;;5056144;28;20218;-75
2023/12/24 02:15:30;;;;;;;1.88;1.77;;;7.60;92.30;;;;;;5057049;28;20198;-76
2023/12/24 02:17:59;;;;;;;2.05;1.95;;;7.60;92.50;;;;;;5057185;28;20229;-75
2023/12/24 02:20:26;;;;;;;2.10;2.00;;;7.60;92.10;;;;;;5057352;28;21143;-76
2023/12/24 02:22:55;;;;;;;2.03;1.92;;;7.60;91.90;;;;;;5057400;28;20226;-75
2023/12/24 02:25:22;;;;;;;1.80;1.75;;;7.60;92.30;;;;;;5056146;28;20211;-77
2023/12/24 02:27:56;;;;;;;2.03;1.92;;;7.50;92.60;;;;;;5057396;28;20264;-76
2023/12/24 02:30:28;;;;;;;2.17;1.80;;;7.50;92.60;;;;;;5059482;28;20209;-76
2023/12/24 02:32:57;;;;;;;2.30;2.20;;;7.60;92.20;;;;;;5055447;28;20222;-77
2023/12/24 02:35:29;;;;;;;1.65;1.55;;;7.60;93.00;;;;;;5057547;28;20205;-74
2023/12/24 02:37:58;;;;;;;1.90;1.80;;;7.60;93.10;;;;;;5058730;28;20734;-75
2023/12/24 02:40:25;;;;;;;2.20;1.88;;;7.70;92.40;;;;;;5059697;28;20203;-76
2023/12/24 02:42:52;;;;;;;1.80;1.70;;;7.80;91.40;;;;;;5055980;28;20257;-75
2023/12/24 02:45:19;;;;;;;2.17;2.08;;;7.80;91.30;;;;;;5061950;28;20206;-76
2023/12/24 02:47:46;;;;;;;1.95;1.85;;;7.90;91.60;;;;;;5059292;28;20734;-75
2023/12/24 02:50:16;;;;;;;2.30;2.08;;;7.80;92.10;;;;;;5056326;28;20209;-76
2023/12/24 02:52:44;;;;;;;2.03;1.92;;;7.70;92.30;;;;;;5057249;28;20214;-75
2023/12/24 02:55:12;;;;;;;2.00;1.90;;;7.60;92.40;;;;;;5058897;28;20853;-75
2023/12/24 02:57:40;;;;;;;2.38;1.83;;;7.50;92.20;;;;;;5057707;28;20672;-76
2023/12/24 03:00:09;;;;;;;1.75;1.67;;;7.50;92.20;;;;;;5062076;28;20213;-75
2023/12/24 03:02:36;;;;;;;1.80;1.70;;;7.50;92.30;;;;;;5057245;28;20236;-75
2023/12/24 03:05:03;;;;;;;1.88;1.77;;;7.40;92.40;;;;;;5060379;28;20213;-76
2023/12/24 03:07:30;;;;;;;1.95;1.85;;;7.40;92.60;;;;;;5062254;28;20234;-75
2023/12/24 03:09:57;;;;;;;1.90;1.80;;;7.30;92.80;;;;;;5063934;28;20202;-75
2023/12/24 03:12:26;;;;;;;2.03;1.92;;;7.30;93.00;;;;;;5063742;28;20214;-74
2023/12/24 03:14:53;;;;;;;1.90;1.80;;;7.30;93.40;;;;;;5062493;28;20198;-74
2023/12/24 03:17:21;;;;;;;1.90;1.80;;;7.30;93.30;;;;;;5063002;28;20796;-77
2023/12/24 03:19:48;;;;;;;1.83;1.80;;;7.30;93.40;;;;;;5061734;28;20225;-77
2023/12/24 03:22:15;;;;;;;2.85;1.70;;;7.30;93.60;;;;;;5064987;28;20233;-75
2023/12/24 03:24:42;;;;;;;1.98;1.88;;;7.30;93.20;;;;;;5060916;28;20202;-78
2023/12/24 03:27:09;;;;;;;1.60;1.60;;;7.30;93.20;;;;;;5063095;28;20228;-77
2023/12/24 03:29:37;;;;;;;1.88;1.80;;;7.30;92.60;;;;;;5059754;28;20572;-77
2023/12/24 03:32:05;;;;;;;1.83;1.73;;;7.30;93.20;;;;;;5062080;28;20232;-75
2023/12/24 03:34:32;;;;;;;2.35;2.25;;;7.30;93.70;;;;;;5063542;28;20206;-75
2023/12/24 03:36:59;;;;;;;1.73;1.73;;;7.30;93.90;;;;;;5059597;28;20829;-75
2023/12/24 03:39:26;;;;;;;1.80;1.73;;;7.30;93.50;;;;;;5061519;28;20202;-74
2023/12/24 03:41:53;;;;;;;2.17;2.08;;;7.30;92.70;;;;;;5061660;28;20605;-76
2023/12/24 03:44:20;;;;;;;2.10;2.00;;;7.30;92.90;;;;;;5059415;28;20884;-76
2023/12/24 03:46:48;;;;;;;2.03;1.90;;;7.30;92.70;;;;;;5060029;28;20195;-77
2023/12/24 03:49:16;;;;;;;2.08;1.98;;;7.30;92.70;;;;;;5058269;28;20213;-76
2023/12/24 03:51:43;;;;;;;2.00;1.90;;;7.40;92.00;;;;;;5058129;28;20324;-75
2023/12/24 03:54:10;;;;;;;2.30;2.20;;;7.40;92.20;;;;;;5062126;28;20202;-75
2023/12/24 03:56:37;;;;;;;1.90;1.80;;;7.40;92.40;;;;;;5062762;28;20206;-75
2023/12/24 03:59:04;;;;;;;2.53;2.38;;;7.30;92.30;;;;;;5042013;28;20222;-74
2023/12/24 04:01:31;;;;;;;2.15;2.05;;;7.20;92.60;;;;;;5040984;28;20639;-76
2023/12/24 04:03:59;;;;;;;2.22;2.13;;;7.10;92.90;;;;;;5056994;28;20226;-76
2023/12/24 04:06:26;;;;;;;2.10;2.00;;;7.10;92.90;;;;;;5061999;28;20820;-75
2023/12/24 04:08:54;;;;;;;2.47;2.25;;;7.10;93.30;;;;;;5058160;28;20222;-76
2023/12/24 04:11:21;;;;;;;2.15;2.05;;;7.00;93.40;;;;;;5059425;28;20198;-76
2023/12/24 04:13:48;;;;;;;2.20;2.10;;;7.00;93.10;;;;;;5059142;28;20217;-76
2023/12/24 04:16:15;;;;;;;1.88;1.77;;;6.90;93.40;;;;;;5060791;28;20202;-76
2023/12/24 04:18:42;;;;;;;1.73;1.73;;;7.00;93.90;;;;;;5061538;28;20265;-77
2023/12/24 04:21:10;;;;;;;2.00;1.90;;;7.00;93.20;;;;;;5058580;28;20206;-76
2023/12/24 04:23:37;;;;;;;2.00;1.90;;;7.10;92.70;;;;;;5058372;28;20229;-75
2023/12/24 04:26:04;;;;;;;1.90;1.80;;;7.10;93.20;;;;;;5059179;28;20206;-74
2023/12/24 04:28:33;;;;;;;1.48;1.48;;;7.20;92.60;;;;;;5057062;28;20262;-75
2023/12/24 04:31:00;;;;;;;2.10;2.00;;;7.30;92.20;;;;;;5060729;28;20294;-76
2023/12/24 04:33:27;;;;;;;1.75;1.73;;;7.40;92.00;;;;;;5058905;28;20210;-75
2023/12/24 04:35:54;;;;;;;1.95;1.85;;;7.40;92.00;;;;;;5062003;28;20209;-76
2023/12/24 04:38:23;;;;;;;1.98;1.88;;;7.50;91.70;;;;;;5060118;28;20230;-77
2023/12/24 04:40:50;;;;;;;1.77;1.67;;;7.60;91.40;;;;;;5061296;28;20459;-75
2023/12/24 04:43:17;;;;;;;2.05;1.95;;;7.60;91.40;;;;;;5064652;28;20225;-75
2023/12/24 04:45:44;;;;;;;1.90;1.80;;;7.70;91.20;;;;;;5066885;28;20202;-77
2023/12/24 04:48:11;;;;;;;1.80;1.70;;;7.70;91.10;;;;;;5058056;28;20227;-75
2023/12/24 04:50:38;;;;;;;1.77;1.67;;;7.80;91.10;;;;;;5059134;28;20613;-75
2023/12/24 04:53:05;;;;;;;2.00;1.90;;;7.80;91.10;;;;;;5060444;28;20783;-75
2023/12/24 04:55:35;;;;;;;1.70;1.70;;;7.70;91.40;;;;;;5062089;28;20206;-76
2023/12/24 04:58:02;;;;;;;1.90;1.80;;;7.50;91.50;;;;;;5059736;28;20233;-74
2023/12/24 05:00:29;;;;;;;1.90;1.80;;;7.50;91.70;;;;;;5060413;28;22186;-76
2023/12/24 05:02:56;;;;;;;2.20;2.10;;;7.40;91.80;;;;;;5056351;28;20219;-77
2023/12/24 05:05:24;;;;;;;1.92;1.85;;;7.20;92.40;;;;;;5058970;28;20199;-76
2023/12/24 05:07:51;;;;;;;2.08;1.98;;;7.10;92.60;;;;;;5058757;28;20224;-76
2023/12/24 05:10:18;;;;;;;2.40;2.30;;;7.10;92.50;;;;;;5060223;28;20222;-78
2023/12/24 05:12:47;;;;;;;2.30;2.20;;;7.00;92.60;;;;;;5061440;28;20213;-76
2023/12/24 05:15:15;;;;;;;2.38;2.28;;;6.90;93.00;;;;;;5061089;28;20206;-75
2023/12/24 05:17:42;;;;;;;2.40;2.30;;;6.80;93.60;;;;;;5059789;28;20232;-76
2023/12/24 05:20:10;;;;;;;2.35;2.15;;;6.70;93.90;;;;;;5061480;28;20687;-75
2023/12/24 05:22:37;;;;;;;2.15;2.05;;;6.70;94.50;;;;;;5057715;28;20222;-75
2023/12/24 05:25:04;;;;;;;2.42;2.33;;;6.60;94.60;;;;;;5060559;28;20202;-78
2023/12/24 05:27:31;;;;;;;2.10;2.00;;;6.60;94.70;;;;;;5058254;28;20238;-76
2023/12/24 05:30:00;;;;;;;2.20;2.10;;;6.60;94.50;;;;;;5057621;28;20194;-76
2023/12/24 05:32:27;;;;;;;2.10;2.00;;;6.60;94.00;;;;;;5060007;28;20224;-75
2023/12/24 05:34:54;;;;;;;2.00;1.90;;;6.60;94.50;;;;;;5062576;28;20205;-75
2023/12/24 05:37:21;;;;;;;2.40;2.30;;;6.70;94.50;;;;;;5061652;28;20636;-75
2023/12/24 05:39:48;;;;;;;2.45;2.35;;;6.70;95.00;;;;;;5061034;28;20209;-76
2023/12/24 05:42:15;;;;;;;2.22;2.13;;;6.80;94.60;;;;;;5057730;28;20237;-76
2023/12/24 05:44:42;;;;;;;2.05;1.95;;;6.80;94.10;;;;;;5061586;28;20221;-76
2023/12/24 05:47:10;;;;;;;2.20;2.10;;;6.90;93.70;;;;;;5061282;28;20688;-76
2023/12/24 05:49:39;;;;;;;2.17;2.08;;;6.90;93.60;;;;;;5061035;28;20601;-76
2023/12/24 05:52:06;;;;;;;2.22;2.13;;;6.90;93.90;;;;;;5060813;28;20230;-75
2023/12/24 05:54:33;;;;;;;2.10;2.00;;;6.90;93.40;;;;;;5060615;28;20203;-78
2023/12/24 05:57:00;;;;;;;2.22;2.13;;;6.90;93.60;;;;;;5059401;28;20234;-76
2023/12/24 05:59:27;;;;;;;2.20;2.10;;;6.80;93.20;;;;;;5059206;28;20206;-77
2023/12/24 06:01:54;;;;;;;1.88;1.77;;;6.90;93.60;;;;;;5058791;28;20221;-76
2023/12/24 06:04:23;;;;;;;1.98;1.90;;;6.90;93.30;;;;;;5060921;28;20240;-75
2023/12/24 06:06:50;;;;;;;2.00;1.90;;;6.90;93.70;;;;;;5058989;28;20236;-75
2023/12/24 06:09:17;;;;;;;1.80;1.80;;;6.80;93.80;;;;;;5060537;28;20206;-75
2023/12/24 06:11:44;;;;;;;1.60;1.60;;;6.80;94.10;;;;;;5057193;28;20557;-76
2023/12/24 06:14:11;;;;;;;2.00;1.90;;;6.70;93.90;;;;;;5058007;28;20194;-76
2023/12/24 06:16:38;;;;;;;1.98;1.88;;;6.70;93.80;;;;;;5058869;28;20206;-75
2023/12/24 06:19:05;;;;;;;1.80;1.80;;;6.70;93.60;;;;;;5057295;28;20233;-75
2023/12/24 06:21:33;;;;;;;1.70;1.70;;;6.70;93.30;;;;;;5057785;28;20212;-77
2023/12/24 06:24:01;;;;;;;2.15;2.05;;;6.80;93.50;;;;;;5059082;28;20585;-78
2023/12/24 06:26:28;;;;;;;1.95;1.90;;;6.80;93.00;;;;;;5064795;28;20197;-77
2023/12/24 06:28:55;;;;;;;1.80;1.70;;;6.80;93.10;;;;;;5058037;28;20580;-78
2023/12/24 06:31:22;;;;;;;2.30;2.20;;;6.80;93.50;;;;;;5057806;28;20207;-77
2023/12/24 06:33:49;;;;;;;2.03;1.92;;;6.70;93.30;;;;;;5057516;28;20254;-76
2023/12/24 06:36:17;;;;;;;1.98;1.88;;;6.70;93.60;;;;;;5060627;28;20207;-77
2023/12/24 06:38:45;;;;;;;2.28;2.17;;;6.70;93.90;;;;;;5061595;28;20324;-76
2023/12/24 06:41:12;;;;;;;2.17;2.08;;;6.70;93.60;;;;;;5063848;28;20202;-74
2023/12/24 06:43:40;;;;;;;2.40;2.20;;;6.70;93.80;;;;;;5061506;28;20685;-76
2023/12/24 06:46:11;;;;;;;2.30;2.20;;;6.70;94.10;;;;;;5064704;28;20217;-76
2023/12/24 06:48:38;;;;;;;2.03;1.92;;;6.60;93.80;;;;;;5063688;28;20240;-75
2023/12/24 06:51:06;;;;;;;2.03;1.92;;;6.70;94.40;;;;;;5061025;28;20194;-75
2023/12/24 06:53:33;;;;;;;2.20;2.10;;;6.70;94.30;;;;;;5061679;28;20222;-76
2023/12/24 06:56:01;;;;;;;2.15;2.05;;;6.70;94.00;;;;;;5064694;28;20205;-76
2023/12/24 06:58:28;;;;;;;2.00;1.90;;;6.70;94.30;;;;;;5065201;28;20233;-76
2023/12/24 07:00:55;;;;;;;2.00;1.90;;;6.80;94.20;;;;;;5067953;28;20230;-77
2023/12/24 07:03:22;;;;;;;2.22;2.13;;;6.80;93.80;;;;;;5070958;28;20312;-76
2023/12/24 07:05:49;;;;;;;2.60;2.50;;;6.70;93.90;;;;;;5066142;28;20229;-76
2023/12/24 07:08:16;;;;;;;2.45;2.35;;;6.70;93.90;;;;;;5064968;28;21100;-77
2023/12/24 07:10:44;;;;;;;3.22;3.03;;;6.70;94.00;;;;;;5065157;28;20202;-75
2023/12/24 07:13:12;;;;;;;3.47;3.17;;;6.60;94.30;;;;;;5058675;28;20210;-75
2023/12/24 07:15:40;;;;;;;3.13;2.92;;;6.50;94.80;;;;;;5065738;28;20676;-76
2023/12/24 07:18:07;;;;;;;2.92;2.63;;;6.50;94.90;;;;;;5061953;28;20225;-76
2023/12/24 07:20:34;;;;;;;3.17;2.97;;;6.50;94.20;;;;;;5063128;28;20202;-76
2023/12/24 07:23:01;;;;;;;4.47;4.07;;;6.50;94.10;;;;;;5048763;28;20801;-76
2023/12/24 07:25:28;;;;;;;3.33;3.03;;;6.50;94.10;;;;;;5042630;28;20207;-75
2023/12/24 07:27:56;;;;;;;3.00;2.80;;;6.60;94.00;;;;;;5051477;28;20252;-76
2023/12/24 07:30:24;;;;;;;2.50;2.40;;;6.60;94.10;;;;;;5060197;28;20202;-74
2023/12/24 07:32:51;;;;;;;2.50;2.40;;;6.80;95.00;;;;;;5057699;28;20222;-74
2023/12/24 07:35:18;;;;;;;2.80;2.60;;;6.90;94.90;;;;;;5059929;28;20754;-75
2023/12/24 07:37:47;;;;;;;2.35;2.25;;;7.10;95.70;;;;;;5057717;28;20254;-74
2023/12/24 07:40:14;;;;;;;2.30;2.20;;;7.20;95.40;;;;;;5058807;28;20210;-76
2023/12/24 07:42:41;;;;;;;2.20;2.00;;;7.20;95.20;;;;;;5047513;28;20968;-75
2023/12/24 07:45:10;;;;;;;2.38;2.28;;;7.10;94.90;;;;;;5053534;28;20912;-74
2023/12/24 07:47:38;;;;;;;1.88;1.77;;;7.10;95.30;;;;;;5052526;28;20234;-74
2023/12/24 07:50:07;;;;;;;1.98;1.88;;;7.10;95.20;;;;;;5051772;28;20191;-74
2023/12/24 07:52:34;;;;;;;2.25;2.10;;;7.20;95.90;;;;;;5052958;28;20751;-75
2023/12/24 07:55:01;;;;;;;1.90;1.80;;;7.30;96.50;;;;;;5058526;28;20751;-75
2023/12/24 07:57:28;;;;;;;1.90;1.80;;;7.40;96.20;;;;;;5053375;28;20241;-75
2023/12/24 07:59:55;;;;;;;2.15;2.00;;;7.40;95.80;;;;;;5053527;28;20622;-74
2023/12/24 08:02:22;;;;;;;2.30;2.20;;;7.60;95.70;;;;;;5050875;28;20214;-74
2023/12/24 08:04:54;;;;;;;1.90;1.80;;;7.80;96.30;;;;;;5056021;28;20213;-75
2023/12/24 08:07:21;;;;;;;2.60;2.40;;;7.90;94.00;;;;;;5050979;28;20222;-73
2023/12/24 08:09:48;;;;;;;4.05;3.22;;;7.90;93.40;;;;;;5052880;28;20711;-76
2023/12/24 08:12:15;;;;;;;6.18;4.45;;;7.70;93.90;;;;;;5055268;28;20213;-76
2023/12/24 08:14:42;;;;;;;6.63;4.72;;;7.50;96.10;;;;;;5053513;28;20225;-73
2023/12/24 08:17:10;;;;;;;5.80;4.93;;;7.60;97.20;;;;;;5058198;28;20311;-76
2023/12/24 08:19:37;;;;;;;4.00;3.60;;;7.70;95.90;;;;;;5056833;28;20202;-75
2023/12/24 08:22:06;;;;;;;3.47;3.17;;;8.20;94.10;;;;;;5059153;28;20240;-76
2023/12/24 08:24:33;;;;;;;7.35;3.17;;;8.80;93.40;;;;;;5060272;28;20761;-75
2023/12/24 08:27:00;;;;;;;3.67;3.35;;;9.00;93.20;;;;;;5057231;28;20238;-74
2023/12/24 08:29:27;;;;;;;3.42;3.15;;;9.30;92.70;;;;;;5058150;28;20194;-74
2023/12/24 08:31:57;;;;;;;2.90;2.70;;;9.60;92.80;;;;;;5054360;28;20207;-72
2023/12/24 08:34:24;;;;;;;3.00;2.80;;;10.20;92.20;;;;;;5057015;28;20232;-73
2023/12/24 08:36:52;;;;;;;3.25;2.50;;;10.90;92.40;;;;;;5052696;28;20210;-74
2023/12/24 08:39:20;;;;;;;2.83;2.63;;;11.40;91.90;;;;;;5053714;28;20206;-74
2023/12/24 08:41:47;;;;;;;2.95;2.75;;;12.10;91.10;;;;;;5053729;28;20207;-75
2023/12/24 08:44:14;;;;;;;2.88;2.70;;;12.60;90.10;;;;;;5050768;28;21182;-75
2023/12/24 08:46:45;;;;;;;3.10;2.80;;;13.10;90.50;;;;;;5052401;28;20229;-73
2023/12/24 08:49:12;;;;;;;2.47;2.28;;;13.70;89.10;;;;;;5053235;28;20209;-73
2023/12/24 08:51:39;;;;;;;2.67;2.47;;;14.20;87.20;;;;;;5053689;28;20201;-73
2023/12/24 08:54:07;;;;;;;2.67;2.47;;;14.80;86.10;;;;;;5054668;28;20852;-74
2023/12/24 08:56:36;;;;;;;2.28;2.17;;;15.70;84.70;;;;;;5057634;28;20206;-73
2023/12/24 08:59:04;;;;;;;2.78;2.55;;;16.80;81.30;;;;;;5053331;28;20233;-75
2023/12/24 09:01:31;;;;;;;2.95;2.75;;;17.50;78.60;;;;;;5054221;28;20210;-74
2023/12/24 09:03:58;;;;;;;2.95;2.75;;;18.20;78.20;;;;;;5052445;28;20241;-75
2023/12/24 09:06:25;;;;;;;4.60;2.90;;;18.80;74.90;;;;;;5049019;28;20217;-74
2023/12/24 09:08:52;;;;;;;3.00;2.80;;;19.00;72.10;;;;;;5054622;28;20230;-74
2023/12/24 09:11:19;;;;;;;3.95;3.58;;;19.20;72.00;;;;;;5050023;28;20195;-75
2023/12/24 09:13:47;;;;;;;3.08;2.85;;;19.70;69.20;;;;;;5053193;28;20226;-74
2023/12/24 09:16:14;;;;;;;3.40;3.10;;;20.10;66.40;;;;;;5051116;28;20209;-76
2023/12/24 09:18:41;;;;;;;3.78;3.30;;;20.40;64.60;;;;;;5052499;28;20237;-76
2023/12/24 09:21:09;;;;;;;3.20;2.90;;;21.50;61.30;;;;;;5053602;28;20211;-74
2023/12/24 09:23:36;;;;;;;3.50;3.20;;;22.50;58.10;;;;;;5052006;28;20723;-75
2023/12/24 09:26:03;;;;;;;3.53;2.45;;;23.70;54.30;;;;;;5052672;28;20206;-74
2023/12/24 09:28:30;;;;;;;2.10;2.00;;;24.30;50.60;;;;;;5054455;28;20230;-75
2023/12/24 09:30:58;;;;;;;2.30;2.10;;;25.00;49.70;;;;;;5055537;28;20214;-77
2023/12/24 09:33:25;;;;;;;2.05;1.95;;;25.20;46.90;;;;;;5057290;28;20225;-76
2023/12/24 09:35:52;;;;;;;1.75;1.65;;;24.60;46.60;;;;;;5055013;28;20793;-76
2023/12/24 09:38:19;;;;;;;1.88;1.67;;;24.70;44.20;;;;;;5050059;28;20226;-74
2023/12/24 09:40:46;;;;;;;1.70;1.60;;;24.60;43.10;;;;;;5053031;28;20847;-75
2023/12/24 09:43:13;;;;;;;1.60;1.50;;;25.30;43.30;;;;;;5052704;28;20222;-74
2023/12/24 09:45:40;;;;;;;1.70;1.60;;;26.20;42.00;;;;;;5051260;28;20256;-75
2023/12/24 09:48:09;;;;;;;1.80;1.70;;;26.90;40.90;;;;;;5053353;28;21116;-76
2023/12/24 09:50:36;;;;;;;1.90;1.80;;;27.20;38.70;;;;;;5053234;28;20221;-75
2023/12/24 09:53:05;;;;;;;1.70;1.60;;;27.40;38.90;;;;;;5050741;28;20224;-75
2023/12/24 09:55:33;;;;;;;1.60;1.50;;;27.40;36.20;;;;;;5053667;28;20198;-75
2023/12/24 09:58:00;;;;;;;2.28;1.70;;;27.30;37.30;;;;;;5054517;28;20225;-76
2023/12/24 10:00:27;;;;;;;2.00;1.90;;;26.60;38.40;;;;;;5052588;28;20202;-74
2023/12/24 10:02:54;;;;;;;2.25;1.90;;;26.00;39.40;;;;;;5054675;28;20218;-74
2023/12/24 10:05:22;;;;;;;1.73;1.63;;;24.80;40.30;;;;;;5054310;28;20218;-75
2023/12/24 10:07:49;;;;;;;1.70;1.60;;;23.80;41.90;;;;;;5051750;28;20225;-75
2023/12/24 10:10:17;;;;;;;2.63;2.42;;;22.80;44.20;;;;;;5051976;28;20206;-75
2023/12/24 10:12:44;;;;;;;2.67;2.30;;;22.00;47.80;;;;;;5051649;28;20744;-75
2023/12/24 10:15:11;;;;;;;2.85;2.40;;;21.00;49.30;;;;;;5053483;28;20766;-75
2023/12/24 10:17:38;;;;;;;2.47;2.28;;;20.10;50.70;;;;;;5052084;28;20573;-75
2023/12/24 10:20:09;;;;;;;2.50;2.30;;;19.60;50.60;;;;;;5057826;28;20202;-74
2023/12/24 10:22:38;;;;;;;3.10;2.80;;;19.40;52.40;;;;;;5051492;28;20226;-75
2023/12/24 10:25:07;;;;;;;2.67;2.47;;;19.20;54.40;;;;;;5054609;28;20660;-75
2023/12/24 10:27:34;;;;;;;2.30;2.10;;;19.00;55.20;;;;;;5052229;28;20904;-76
2023/12/24 10:30:13;;;;;;;2.05;1.85;;;19.00;54.90;;;;;;5054520;28;20293;-73
2023/12/24 10:32:40;;;;;;;1.85;1.70;;;19.00;54.50;;;;;;5051970;28;20308;-75
2023/12/24 10:35:08;;;;;;;2.15;1.90;;;19.20;53.40;;;;;;5056410;28;20201;-74
2023/12/24 10:37:35;;;;;;;2.50;2.30;;;19.20;55.10;;;;;;5053332;28;20225;-74
2023/12/24 10:40:08;;;;;;;2.40;2.20;;;19.10;55.60;;;;;;5054240;28;20202;-74
2023/12/24 10:42:36;;;;;;;2.35;2.15;;;19.10;56.20;;;;;;5051724;28;20226;-74
2023/12/24 10:45:04;;;;;;;2.65;2.40;;;19.30;56.40;;;;;;5057991;28;20250;-77
2023/12/24 10:47:31;;;;;;;2.40;2.20;;;18.90;54.70;;;;;;5060049;28;20230;-78
2023/12/24 10:49:58;;;;;;;1.98;1.88;;;18.10;55.70;;;;;;5059366;28;20199;-77
2023/12/24 10:52:25;;;;;;;2.30;2.10;;;17.30;58.80;;;;;;5057075;28;20669;-76
2023/12/24 10:54:53;;;;;;;3.15;2.10;;;17.50;62.20;;;;;;5061067;28;20198;-77
2023/12/24 10:57:52;;;;;;;2.15;1.83;;;18.00;64.90;;;;;;5060211;28;20237;-76
2023/12/24 11:00:20;;;;;;;2.30;2.10;;;18.60;61.00;;;;;;5055561;28;20240;-76
2023/12/24 11:02:49;;;;;;;2.28;2.08;;;18.30;58.50;;;;;;5052988;28;20226;-76
2023/12/24 11:05:50;;;;;;;2.10;2.00;;;17.60;60.30;;;;;;5056809;28;20241;-76
2023/12/24 11:08:30;;;;;;;2.30;2.10;;;17.80;61.90;;;;;;5057367;28;20230;-76
2023/12/24 11:10:58;;;;;;;2.35;2.15;;;17.30;60.70;;;;;;5055983;28;20222;-77
2023/12/24 11:13:46;;;;;;;2.42;2.22;;;17.10;61.60;;;;;;5054299;28;20218;-77
2023/12/24 11:16:25;;;;;;;2.25;2.05;;;17.10;61.60;;;;;;5056889;28;20956;-76
2023/12/24 11:18:57;;;;;;;2.33;2.13;;;16.80;62.10;;;;;;5054304;28;20221;-77
2023/12/24 11:21:24;;;;;;;2.28;2.08;;;16.50;61.20;;;;;;5057611;28;20200;-77
2023/12/24 11:24:21;;;;;;;2.10;1.90;;;16.20;62.20;;;;;;5056295;28;20661;-77
2023/12/24 11:26:51;;;;;;;1.90;1.80;;;15.50;61.70;;;;;;5059029;28;20202;-75
2023/12/24 11:29:47;;;;;;;1.65;1.55;;;15.00;65.40;;;;;;5064856;28;20194;-77
2023/12/24 11:32:38;;;;;;;1.80;1.70;;;14.60;68.60;;;;;;5062484;28;20226;-77
2023/12/24 11:35:08;;;;;;;3.78;2.35;;;14.80;70.00;;;;;;5041458;28;20206;-78
2023/12/24 11:37:36;;;;;;;2.38;2.17;;;15.00;69.50;;;;;;5058250;28;20320;-77
2023/12/24 11:40:06;;;;;;;2.10;1.90;;;14.60;68.30;;;;;;5062246;28;20206;-76
2023/12/24 11:42:44;;;;;;;2.53;2.33;;;14.20;68.50;;;;;;5057393;28;20238;-78
2023/12/24 11:45:24;;;;;;;2.10;1.90;;;14.00;70.10;;;;;;5058772;28;20309;-76
2023/12/24 11:47:50;;;;;;;2.20;2.10;;;14.00;71.20;;;;;;5057184;28;20743;-77
2023/12/24 11:50:18;;;;;;;2.30;2.20;;;13.90;72.50;;;;;;5060591;28;20308;-76
2023/12/24 11:52:46;;;;;;;2.45;2.22;;;13.90;72.10;;;;;;5054632;28;20305;-75
2023/12/24 11:55:16;;;;;;;2.78;2.35;;;13.80;72.60;;;;;;5055960;28;20206;-75
2023/12/24 11:57:43;;;;;;;2.85;2.10;;;13.90;73.00;;;;;;5057851;28;20226;-76
2023/12/24 12:00:13;;;;;;;2.15;1.95;;;13.80;72.80;;;;;;5054368;28;20294;-77
2023/12/24 12:02:43;;;;;;;2.17;1.98;;;13.70;72.90;;;;;;5056933;28;20312;-76
2023/12/24 12:05:10;;;;;;;4.03;2.42;;;13.60;73.70;;;;;;5056212;28;20219;-76
2023/12/24 12:07:37;;;;;;;2.40;2.17;;;13.40;74.00;;;;;;5056723;28;20226;-77
2023/12/24 12:10:05;;;;;;;2.38;2.17;;;13.20;75.00;;;;;;5055337;28;20729;-77
2023/12/24 12:12:32;;;;;;;3.22;2.92;;;13.10;76.20;;;;;;5054389;28;20324;-76
2023/12/24 12:14:59;;;;;;;3.22;2.92;;;13.00;76.80;;;;;;5053922;28;20202;-76
2023/12/24 12:17:27;;;;;;;3.13;2.92;;;13.10;77.50;;;;;;5054147;28;20264;-75
2023/12/24 12:19:55;;;;;;;3.28;2.97;;;13.20;78.60;;;;;;5057719;28;20559;-76
2023/12/24 12:22:22;;;;;;;3.38;2.80;;;13.20;78.10;;;;;;5053355;28;20226;-76
2023/12/24 12:24:49;;;;;;;3.10;2.90;;;13.30;77.10;;;;;;5048342;28;20260;-75
2023/12/24 12:27:17;;;;;;;2.90;2.70;;;13.30;76.60;;;;;;5051715;28;20230;-75
2023/12/24 12:29:44;;;;;;;2.45;2.25;;;13.30;76.40;;;;;;5055344;28;20201;-75
2023/12/24 12:32:11;;;;;;;2.50;2.38;;;13.40;75.90;;;;;;5055905;28;20226;-76
2023/12/24 12:34:40;;;;;;;2.53;2.33;;;13.50;76.00;;;;;;5053732;28;20198;-74
2023/12/24 12:37:09;;;;;;;2.95;2.65;;;13.50;76.40;;;;;;5052691;28;20230;-73
2023/12/24 12:39:36;;;;;;;2.78;2.58;;;13.50;77.50;;;;;;5056684;28;20209;-75
2023/12/24 12:42:04;;;;;;;2.67;2.47;;;13.50;78.40;;;;;;5055661;28;20230;-76
2023/12/24 12:44:31;;;;;;;3.30;3.00;;;13.60;78.60;;;;;;5054993;28;20214;-75
2023/12/24 12:46:58;;;;;;;3.13;2.45;;;13.60;78.60;;;;;;5047121;28;20225;-76
2023/12/24 12:49:25;;;;;;;3.28;3.08;;;13.50;78.50;;;;;;5055222;28;20202;-76
2023/12/24 12:51:53;;;;;;;3.42;3.10;;;13.40;78.30;;;;;;5051013;28;20201;-75
2023/12/24 12:54:21;;;;;;;2.88;2.50;;;13.40;78.50;;;;;;5052706;28;20297;-74
2023/12/24 12:56:49;;;;;;;3.00;2.80;;;13.40;78.40;;;;;;5052682;28;20735;-75